sensor_id;sensor_type;location;lat;lon;timestamp;P1;durP1;ratioP1;P2;durP2;ratioP2
57593;SDS011;43423;46.510;6.686;2022-09-29T00:00:23;1.55;;;0.82;;
57593;SDS011;43423;46.510;6.686;2022-09-29T00:03:08;20.88;;;1.42;;
57593;SDS011;43423;46.510;6.686;2022-09-29T00:05:34;1.05;;;0.88;;
57593;SDS011;43423;46.510;6.686;2022-09-29T00:08:00;0.65;;;0.60;;
57593;SDS011;43423;46.510;6.686;2022-09-29T00:10:26;1.63;;;0.82;;
57593;SDS011;43423;46.510;6.686;2022-09-29T00:12:51;0.77;;;0.77;;
57593;SDS011;43423;46.510;6.686;2022-09-29T00:15:17;1.23;;;0.85;;
57593;SDS011;43423;46.510;6.686;2022-09-29T00:17:42;1.10;;;0.80;;
57593;SDS011;43423;46.510;6.686;2022-09-29T00:20:08;0.98;;;0.90;;
57593;SDS011;43423;46.510;6.686;2022-09-29T00:22:34;1.55;;;0.80;;
57593;SDS011;43423;46.510;6.686;2022-09-29T00:24:59;1.20;;;0.82;;
57593;SDS011;43423;46.510;6.686;2022-09-29T00:27:25;1.60;;;0.98;;
57593;SDS011;43423;46.510;6.686;2022-09-29T00:29:51;1.33;;;1.17;;
57593;SDS011;43423;46.510;6.686;2022-09-29T00:32:16;2.55;;;1.10;;
57593;SDS011;43423;46.510;6.686;2022-09-29T00:34:42;3.10;;;1.10;;
57593;SDS011;43423;46.510;6.686;2022-09-29T00:37:08;1.48;;;0.95;;
57593;SDS011;43423;46.510;6.686;2022-09-29T00:39:34;5.25;;;1.38;;
57593;SDS011;43423;46.510;6.686;2022-09-29T00:41:59;1.23;;;1.10;;
57593;SDS011;43423;46.510;6.686;2022-09-29T00:45:11;1.17;;;1.08;;
57593;SDS011;43423;46.510;6.686;2022-09-29T00:47:19;1.27;;;1.17;;
57593;SDS011;43423;46.510;6.686;2022-09-29T00:52:20;0.73;;;0.60;;
57593;SDS011;43423;46.510;6.686;2022-09-29T00:57:28;1.70;;;1.05;;
57593;SDS011;43423;46.510;6.686;2022-09-29T01:00:00;1.10;;;1.00;;
57593;SDS011;43423;46.510;6.686;2022-09-29T01:02:30;1.02;;;0.95;;
57593;SDS011;43423;46.510;6.686;2022-09-29T01:04:59;1.65;;;0.85;;
57593;SDS011;43423;46.510;6.686;2022-09-29T01:07:31;1.23;;;1.10;;
57593;SDS011;43423;46.510;6.686;2022-09-29T01:09:58;1.40;;;1.15;;
57593;SDS011;43423;46.510;6.686;2022-09-29T01:12:24;2.15;;;1.38;;
57593;SDS011;43423;46.510;6.686;2022-09-29T01:14:51;1.52;;;1.30;;
57593;SDS011;43423;46.510;6.686;2022-09-29T01:17:18;2.35;;;1.15;;
57593;SDS011;43423;46.510;6.686;2022-09-29T01:42:06;0.50;;;0.40;;
57593;SDS011;43423;46.510;6.686;2022-09-29T01:47:55;1.00;;;0.35;;
57593;SDS011;43423;46.510;6.686;2022-09-29T01:50:10;0.20;;;0.20;;
57593;SDS011;43423;46.510;6.686;2022-09-29T01:52:50;0.82;;;0.30;;
57593;SDS011;43423;46.510;6.686;2022-09-29T01:55:22;0.50;;;0.38;;
57593;SDS011;43423;46.510;6.686;2022-09-29T01:58:08;0.73;;;0.30;;
57593;SDS011;43423;46.510;6.686;2022-09-29T02:00:38;0.47;;;0.17;;
57593;SDS011;43423;46.510;6.686;2022-09-29T02:03:18;0.20;;;0.20;;
57593;SDS011;43423;46.510;6.686;2022-09-29T02:05:51;0.15;;;0.10;;
57593;SDS011;43423;46.510;6.686;2022-09-29T02:08:24;0.52;;;0.15;;
57593;SDS011;43423;46.510;6.686;2022-09-29T02:11:03;0.20;;;0.20;;
57593;SDS011;43423;46.510;6.686;2022-09-29T02:13:34;0.10;;;0.10;;
57593;SDS011;43423;46.510;6.686;2022-09-29T02:16:04;0.10;;;0.10;;
57593;SDS011;43423;46.510;6.686;2022-09-29T02:18:38;0.93;;;0.20;;
57593;SDS011;43423;46.510;6.686;2022-09-29T02:21:12;0.85;;;0.00;;
57593;SDS011;43423;46.510;6.686;2022-09-29T02:23:38;0.10;;;0.10;;
57593;SDS011;43423;46.510;6.686;2022-09-29T02:26:03;9.85;;;1.02;;
57593;SDS011;43423;46.510;6.686;2022-09-29T02:28:29;0.10;;;0.10;;
57593;SDS011;43423;46.510;6.686;2022-09-29T02:30:55;1.25;;;0.30;;
57593;SDS011;43423;46.510;6.686;2022-09-29T02:33:22;0.52;;;0.40;;
57593;SDS011;43423;46.510;6.686;2022-09-29T02:38:41;0.10;;;0.10;;
57593;SDS011;43423;46.510;6.686;2022-09-29T02:41:59;0.13;;;0.10;;
57593;SDS011;43423;46.510;6.686;2022-09-29T02:58:33;0.00;;;0.00;;
57593;SDS011;43423;46.510;6.686;2022-09-29T03:01:06;0.10;;;0.00;;
57593;SDS011;43423;46.510;6.686;2022-09-29T03:03:32;0.10;;;0.10;;
57593;SDS011;43423;46.510;6.686;2022-09-29T03:05:58;0.10;;;0.10;;
57593;SDS011;43423;46.510;6.686;2022-09-29T03:08:24;1.13;;;0.10;;
57593;SDS011;43423;46.510;6.686;2022-09-29T03:10:49;0.20;;;0.10;;
57593;SDS011;43423;46.510;6.686;2022-09-29T03:13:15;0.10;;;0.10;;
57593;SDS011;43423;46.510;6.686;2022-09-29T03:15:40;0.43;;;0.30;;
57593;SDS011;43423;46.510;6.686;2022-09-29T03:18:06;0.00;;;0.00;;
57593;SDS011;43423;46.510;6.686;2022-09-29T03:20:32;0.10;;;0.10;;
57593;SDS011;43423;46.510;6.686;2022-09-29T03:22:58;0.93;;;0.30;;
57593;SDS011;43423;46.510;6.686;2022-09-29T03:25:23;0.77;;;0.30;;
57593;SDS011;43423;46.510;6.686;2022-09-29T03:27:50;0.20;;;0.10;;
57593;SDS011;43423;46.510;6.686;2022-09-29T03:30:16;0.10;;;0.10;;
57593;SDS011;43423;46.510;6.686;2022-09-29T03:32:42;0.08;;;0.08;;
57593;SDS011;43423;46.510;6.686;2022-09-29T03:35:08;0.00;;;0.00;;
57593;SDS011;43423;46.510;6.686;2022-09-29T03:37:34;0.10;;;0.00;;
57593;SDS011;43423;46.510;6.686;2022-09-29T03:40:00;0.00;;;0.00;;
57593;SDS011;43423;46.510;6.686;2022-09-29T03:42:25;0.10;;;0.10;;
57593;SDS011;43423;46.510;6.686;2022-09-29T03:44:52;0.20;;;0.20;;
57593;SDS011;43423;46.510;6.686;2022-09-29T03:47:18;0.13;;;0.13;;
57593;SDS011;43423;46.510;6.686;2022-09-29T03:49:44;1.08;;;0.30;;
57593;SDS011;43423;46.510;6.686;2022-09-29T03:52:10;0.50;;;0.43;;
57593;SDS011;43423;46.510;6.686;2022-09-29T03:54:35;0.30;;;0.30;;
57593;SDS011;43423;46.510;6.686;2022-09-29T03:57:00;3.60;;;0.57;;
57593;SDS011;43423;46.510;6.686;2022-09-29T03:59:26;0.60;;;0.43;;
57593;SDS011;43423;46.510;6.686;2022-09-29T04:01:51;0.40;;;0.40;;
57593;SDS011;43423;46.510;6.686;2022-09-29T04:04:17;0.98;;;0.52;;
57593;SDS011;43423;46.510;6.686;2022-09-29T04:06:42;0.82;;;0.55;;
57593;SDS011;43423;46.510;6.686;2022-09-29T04:09:08;1.50;;;0.38;;
57593;SDS011;43423;46.510;6.686;2022-09-29T04:11:34;0.80;;;0.60;;
57593;SDS011;43423;46.510;6.686;2022-09-29T04:13:59;1.38;;;0.60;;
57593;SDS011;43423;46.510;6.686;2022-09-29T04:16:25;0.77;;;0.50;;
57593;SDS011;43423;46.510;6.686;2022-09-29T04:18:50;1.05;;;0.70;;
57593;SDS011;43423;46.510;6.686;2022-09-29T04:21:16;0.80;;;0.65;;
57593;SDS011;43423;46.510;6.686;2022-09-29T04:23:41;0.65;;;0.47;;
57593;SDS011;43423;46.510;6.686;2022-09-29T04:26:07;0.70;;;0.70;;
57593;SDS011;43423;46.510;6.686;2022-09-29T04:28:33;0.70;;;0.50;;
57593;SDS011;43423;46.510;6.686;2022-09-29T04:31:00;0.63;;;0.55;;
57593;SDS011;43423;46.510;6.686;2022-09-29T04:33:26;0.65;;;0.55;;
57593;SDS011;43423;46.510;6.686;2022-09-29T04:35:54;0.50;;;0.50;;
57593;SDS011;43423;46.510;6.686;2022-09-29T04:38:21;0.60;;;0.60;;
57593;SDS011;43423;46.510;6.686;2022-09-29T04:40:47;1.85;;;0.30;;
57593;SDS011;43423;46.510;6.686;2022-09-29T04:43:12;0.57;;;0.47;;
57593;SDS011;43423;46.510;6.686;2022-09-29T04:45:38;0.55;;;0.55;;
57593;SDS011;43423;46.510;6.686;2022-09-29T04:48:04;1.20;;;0.40;;
57593;SDS011;43423;46.510;6.686;2022-09-29T04:50:29;0.47;;;0.47;;
57593;SDS011;43423;46.510;6.686;2022-09-29T04:52:55;0.60;;;0.60;;
57593;SDS011;43423;46.510;6.686;2022-09-29T04:55:21;1.20;;;0.60;;
57593;SDS011;43423;46.510;6.686;2022-09-29T04:57:47;0.70;;;0.43;;
57593;SDS011;43423;46.510;6.686;2022-09-29T05:00:13;0.68;;;0.32;;
57593;SDS011;43423;46.510;6.686;2022-09-29T05:02:39;0.28;;;0.28;;
57593;SDS011;43423;46.510;6.686;2022-09-29T05:05:06;1.00;;;0.20;;
57593;SDS011;43423;46.510;6.686;2022-09-29T05:07:35;0.20;;;0.20;;
57593;SDS011;43423;46.510;6.686;2022-09-29T05:10:01;0.47;;;0.20;;
57593;SDS011;43423;46.510;6.686;2022-09-29T05:12:28;1.40;;;0.40;;
57593;SDS011;43423;46.510;6.686;2022-09-29T05:14:53;1.00;;;0.40;;
57593;SDS011;43423;46.510;6.686;2022-09-29T05:17:19;0.88;;;0.50;;
57593;SDS011;43423;46.510;6.686;2022-09-29T05:19:45;1.38;;;0.90;;
57593;SDS011;43423;46.510;6.686;2022-09-29T05:22:10;2.13;;;0.50;;
57593;SDS011;43423;46.510;6.686;2022-09-29T05:24:36;1.15;;;0.40;;
57593;SDS011;43423;46.510;6.686;2022-09-29T05:27:01;1.23;;;0.30;;
57593;SDS011;43423;46.510;6.686;2022-09-29T05:29:27;0.30;;;0.28;;
57593;SDS011;43423;46.510;6.686;2022-09-29T05:31:53;0.85;;;0.28;;
57593;SDS011;43423;46.510;6.686;2022-09-29T05:34:18;2.08;;;0.38;;
57593;SDS011;43423;46.510;6.686;2022-09-29T05:36:44;0.52;;;0.08;;
57593;SDS011;43423;46.510;6.686;2022-09-29T05:39:10;0.60;;;0.30;;
57593;SDS011;43423;46.510;6.686;2022-09-29T05:41:35;0.50;;;0.20;;
57593;SDS011;43423;46.510;6.686;2022-09-29T05:44:01;0.90;;;0.10;;
57593;SDS011;43423;46.510;6.686;2022-09-29T05:46:27;1.95;;;0.40;;
57593;SDS011;43423;46.510;6.686;2022-09-29T05:48:53;2.53;;;0.30;;
57593;SDS011;43423;46.510;6.686;2022-09-29T05:51:19;0.10;;;0.10;;
57593;SDS011;43423;46.510;6.686;2022-09-29T05:53:47;0.28;;;0.10;;
57593;SDS011;43423;46.510;6.686;2022-09-29T05:56:14;5.38;;;0.30;;
57593;SDS011;43423;46.510;6.686;2022-09-29T05:58:45;0.10;;;0.10;;
57593;SDS011;43423;46.510;6.686;2022-09-29T06:01:12;1.08;;;0.17;;
57593;SDS011;43423;46.510;6.686;2022-09-29T06:03:42;0.28;;;0.20;;
57593;SDS011;43423;46.510;6.686;2022-09-29T06:06:08;0.60;;;0.55;;
57593;SDS011;43423;46.510;6.686;2022-09-29T06:08:34;2.20;;;0.90;;
57593;SDS011;43423;46.510;6.686;2022-09-29T06:11:07;1.20;;;1.00;;
57593;SDS011;43423;46.510;6.686;2022-09-29T06:13:36;1.48;;;1.10;;
57593;SDS011;43423;46.510;6.686;2022-09-29T06:16:03;1.75;;;1.40;;
57593;SDS011;43423;46.510;6.686;2022-09-29T06:18:29;2.25;;;1.60;;
57593;SDS011;43423;46.510;6.686;2022-09-29T06:20:59;1.55;;;1.27;;
57593;SDS011;43423;46.510;6.686;2022-09-29T06:23:25;1.60;;;1.30;;
57593;SDS011;43423;46.510;6.686;2022-09-29T06:25:54;4.40;;;1.40;;
57593;SDS011;43423;46.510;6.686;2022-09-29T06:28:24;1.23;;;1.10;;
57593;SDS011;43423;46.510;6.686;2022-09-29T06:30:50;1.35;;;0.98;;
57593;SDS011;43423;46.510;6.686;2022-09-29T06:33:16;1.23;;;1.13;;
57593;SDS011;43423;46.510;6.686;2022-09-29T06:35:47;2.10;;;0.90;;
57593;SDS011;43423;46.510;6.686;2022-09-29T06:38:32;0.52;;;0.50;;
57593;SDS011;43423;46.510;6.686;2022-09-29T06:40:57;1.48;;;0.40;;
57593;SDS011;43423;46.510;6.686;2022-09-29T06:43:23;0.30;;;0.30;;
57593;SDS011;43423;46.510;6.686;2022-09-29T06:45:49;1.95;;;0.50;;
57593;SDS011;43423;46.510;6.686;2022-09-29T06:48:14;1.30;;;0.60;;
57593;SDS011;43423;46.510;6.686;2022-09-29T06:50:40;0.73;;;0.50;;
57593;SDS011;43423;46.510;6.686;2022-09-29T06:53:05;0.43;;;0.40;;
57593;SDS011;43423;46.510;6.686;2022-09-29T06:55:31;0.40;;;0.40;;
57593;SDS011;43423;46.510;6.686;2022-09-29T06:57:56;1.05;;;0.10;;
57593;SDS011;43423;46.510;6.686;2022-09-29T07:00:22;0.38;;;0.38;;
57593;SDS011;43423;46.510;6.686;2022-09-29T07:02:48;0.80;;;0.20;;
57593;SDS011;43423;46.510;6.686;2022-09-29T07:05:13;0.30;;;0.30;;
57593;SDS011;43423;46.510;6.686;2022-09-29T07:07:40;3.38;;;0.38;;
57593;SDS011;43423;46.510;6.686;2022-09-29T07:10:06;0.52;;;0.28;;
57593;SDS011;43423;46.510;6.686;2022-09-29T07:12:32;0.20;;;0.20;;
57593;SDS011;43423;46.510;6.686;2022-09-29T07:14:58;2.10;;;0.80;;
57593;SDS011;43423;46.510;6.686;2022-09-29T07:17:24;0.30;;;0.30;;
57593;SDS011;43423;46.510;6.686;2022-09-29T07:19:49;1.95;;;0.60;;
57593;SDS011;43423;46.510;6.686;2022-09-29T07:22:15;0.98;;;0.68;;
57593;SDS011;43423;46.510;6.686;2022-09-29T07:24:40;5.07;;;1.40;;
57593;SDS011;43423;46.510;6.686;2022-09-29T07:27:07;1.58;;;1.17;;
57593;SDS011;43423;46.510;6.686;2022-09-29T07:29:33;1.77;;;1.13;;
57593;SDS011;43423;46.510;6.686;2022-09-29T07:31:59;1.90;;;1.30;;
57593;SDS011;43423;46.510;6.686;2022-09-29T07:34:24;1.92;;;1.27;;
57593;SDS011;43423;46.510;6.686;2022-09-29T07:36:50;2.28;;;1.30;;
57593;SDS011;43423;46.510;6.686;2022-09-29T07:39:16;3.30;;;0.95;;
57593;SDS011;43423;46.510;6.686;2022-09-29T07:41:41;0.40;;;0.40;;
57593;SDS011;43423;46.510;6.686;2022-09-29T07:44:07;0.40;;;0.40;;
57593;SDS011;43423;46.510;6.686;2022-09-29T07:46:33;0.77;;;0.20;;
57593;SDS011;43423;46.510;6.686;2022-09-29T07:48:58;1.02;;;0.10;;
57593;SDS011;43423;46.510;6.686;2022-09-29T07:51:24;0.40;;;0.40;;
57593;SDS011;43423;46.510;6.686;2022-09-29T07:53:49;0.20;;;0.20;;
57593;SDS011;43423;46.510;6.686;2022-09-29T07:56:16;0.10;;;0.10;;
57593;SDS011;43423;46.510;6.686;2022-09-29T07:58:44;0.32;;;0.10;;
57593;SDS011;43423;46.510;6.686;2022-09-29T08:01:11;0.47;;;0.10;;
57593;SDS011;43423;46.510;6.686;2022-09-29T08:03:39;0.88;;;0.10;;
57593;SDS011;43423;46.510;6.686;2022-09-29T08:06:06;1.23;;;0.10;;
57593;SDS011;43423;46.510;6.686;2022-09-29T08:08:36;0.00;;;0.00;;
57593;SDS011;43423;46.510;6.686;2022-09-29T08:11:09;0.00;;;0.00;;
57593;SDS011;43423;46.510;6.686;2022-09-29T08:13:36;0.10;;;0.00;;
57593;SDS011;43423;46.510;6.686;2022-09-29T08:16:04;0.08;;;0.08;;
57593;SDS011;43423;46.510;6.686;2022-09-29T08:18:31;0.10;;;0.08;;
57593;SDS011;43423;46.510;6.686;2022-09-29T08:20:58;0.08;;;0.00;;
57593;SDS011;43423;46.510;6.686;2022-09-29T08:23:24;0.30;;;0.10;;
57593;SDS011;43423;46.510;6.686;2022-09-29T08:25:49;2.33;;;0.38;;
57593;SDS011;43423;46.510;6.686;2022-09-29T08:28:23;0.43;;;0.15;;
57593;SDS011;43423;46.510;6.686;2022-09-29T08:30:48;0.10;;;0.10;;
57593;SDS011;43423;46.510;6.686;2022-09-29T08:33:14;0.10;;;0.10;;
57593;SDS011;43423;46.510;6.686;2022-09-29T08:35:40;0.10;;;0.10;;
57593;SDS011;43423;46.510;6.686;2022-09-29T08:38:06;0.10;;;0.10;;
57593;SDS011;43423;46.510;6.686;2022-09-29T08:40:31;0.13;;;0.10;;
57593;SDS011;43423;46.510;6.686;2022-09-29T08:43:10;0.10;;;0.10;;
57593;SDS011;43423;46.510;6.686;2022-09-29T08:45:42;2.03;;;1.70;;
57593;SDS011;43423;46.510;6.686;2022-09-29T08:48:16;0.95;;;0.80;;
57593;SDS011;43423;46.510;6.686;2022-09-29T08:50:47;0.20;;;0.20;;
57593;SDS011;43423;46.510;6.686;2022-09-29T08:53:21;0.10;;;0.10;;
57593;SDS011;43423;46.510;6.686;2022-09-29T08:55:53;1.10;;;0.25;;
57593;SDS011;43423;46.510;6.686;2022-09-29T08:58:21;0.10;;;0.10;;
57593;SDS011;43423;46.510;6.686;2022-09-29T09:00:56;1.02;;;0.20;;
57593;SDS011;43423;46.510;6.686;2022-09-29T09:14:58;0.20;;;0.20;;
57593;SDS011;43423;46.510;6.686;2022-09-29T09:18:02;0.35;;;0.30;;
57593;SDS011;43423;46.510;6.686;2022-09-29T09:23:09;0.43;;;0.28;;
57593;SDS011;43423;46.510;6.686;2022-09-29T09:25:45;0.55;;;0.20;;
57593;SDS011;43423;46.510;6.686;2022-09-29T09:28:42;0.47;;;0.35;;
57593;SDS011;43423;46.510;6.686;2022-09-29T09:33:58;0.60;;;0.30;;
57593;SDS011;43423;46.510;6.686;2022-09-29T09:36:43;0.38;;;0.30;;
57593;SDS011;43423;46.510;6.686;2022-09-29T09:39:13;0.32;;;0.32;;
57593;SDS011;43423;46.510;6.686;2022-09-29T09:41:44;2.47;;;0.55;;
57593;SDS011;43423;46.510;6.686;2022-09-29T09:44:15;0.20;;;0.20;;
57593;SDS011;43423;46.510;6.686;2022-09-29T09:46:48;0.55;;;0.40;;
57593;SDS011;43423;46.510;6.686;2022-09-29T09:49:38;0.40;;;0.32;;
57593;SDS011;43423;46.510;6.686;2022-09-29T09:52:10;0.85;;;0.40;;
57593;SDS011;43423;46.510;6.686;2022-09-29T09:54:44;2.78;;;0.20;;
57593;SDS011;43423;46.510;6.686;2022-09-29T10:00:20;0.77;;;0.70;;
57593;SDS011;43423;46.510;6.686;2022-09-29T10:02:50;0.30;;;0.30;;
57593;SDS011;43423;46.510;6.686;2022-09-29T10:05:28;1.45;;;0.55;;
57593;SDS011;43423;46.510;6.686;2022-09-29T10:08:01;0.20;;;0.20;;
57593;SDS011;43423;46.510;6.686;2022-09-29T10:10:28;0.43;;;0.30;;
57593;SDS011;43423;46.510;6.686;2022-09-29T10:15:32;0.57;;;0.28;;
57593;SDS011;43423;46.510;6.686;2022-09-29T10:18:09;1.00;;;0.20;;
57593;SDS011;43423;46.510;6.686;2022-09-29T10:20:39;1.42;;;0.77;;
57593;SDS011;43423;46.510;6.686;2022-09-29T10:26:03;1.50;;;0.28;;
57593;SDS011;43423;46.510;6.686;2022-09-29T10:31:15;0.40;;;0.30;;
57593;SDS011;43423;46.510;6.686;2022-09-29T10:33:53;0.55;;;0.28;;
57593;SDS011;43423;46.510;6.686;2022-09-29T10:36:21;0.28;;;0.28;;
57593;SDS011;43423;46.510;6.686;2022-09-29T10:38:50;0.30;;;0.30;;
57593;SDS011;43423;46.510;6.686;2022-09-29T10:41:17;0.20;;;0.20;;
57593;SDS011;43423;46.510;6.686;2022-09-29T10:43:44;0.38;;;0.38;;
57593;SDS011;43423;46.510;6.686;2022-09-29T10:49:07;0.40;;;0.40;;
57593;SDS011;43423;46.510;6.686;2022-09-29T10:51:33;0.60;;;0.30;;
57593;SDS011;43423;46.510;6.686;2022-09-29T10:54:05;1.40;;;0.50;;
57593;SDS011;43423;46.510;6.686;2022-09-29T10:56:32;0.50;;;0.30;;
57593;SDS011;43423;46.510;6.686;2022-09-29T10:58:58;2.20;;;0.22;;
57593;SDS011;43423;46.510;6.686;2022-09-29T11:01:26;0.30;;;0.30;;
57593;SDS011;43423;46.510;6.686;2022-09-29T11:04:05;0.30;;;0.30;;
57593;SDS011;43423;46.510;6.686;2022-09-29T11:06:39;1.23;;;0.90;;
57593;SDS011;43423;46.510;6.686;2022-09-29T11:09:06;0.30;;;0.25;;
57593;SDS011;43423;46.510;6.686;2022-09-29T11:11:51;0.43;;;0.20;;
57593;SDS011;43423;46.510;6.686;2022-09-29T11:14:26;0.68;;;0.30;;
57593;SDS011;43423;46.510;6.686;2022-09-29T11:17:36;0.25;;;0.25;;
57593;SDS011;43423;46.510;6.686;2022-09-29T11:19:59;1.10;;;0.30;;
57593;SDS011;43423;46.510;6.686;2022-09-29T11:33:58;0.57;;;0.20;;
57593;SDS011;43423;46.510;6.686;2022-09-29T11:40:03;0.38;;;0.32;;
57593;SDS011;43423;46.510;6.686;2022-09-29T11:45:08;0.55;;;0.20;;
57593;SDS011;43423;46.510;6.686;2022-09-29T11:53:32;0.52;;;0.30;;
57593;SDS011;43423;46.510;6.686;2022-09-29T11:56:28;0.35;;;0.35;;
57593;SDS011;43423;46.510;6.686;2022-09-29T12:07:11;0.55;;;0.55;;
57593;SDS011;43423;46.510;6.686;2022-09-29T12:12:52;0.93;;;0.40;;
57593;SDS011;43423;46.510;6.686;2022-09-29T12:15:48;0.20;;;0.20;;
57593;SDS011;43423;46.510;6.686;2022-09-29T12:18:19;0.52;;;0.30;;
57593;SDS011;43423;46.510;6.686;2022-09-29T12:20:50;0.47;;;0.47;;
57593;SDS011;43423;46.510;6.686;2022-09-29T12:23:19;0.60;;;0.60;;
57593;SDS011;43423;46.510;6.686;2022-09-29T12:25:50;0.50;;;0.50;;
57593;SDS011;43423;46.510;6.686;2022-09-29T12:28:44;0.50;;;0.50;;
57593;SDS011;43423;46.510;6.686;2022-09-29T12:31:20;1.42;;;0.52;;
57593;SDS011;43423;46.510;6.686;2022-09-29T12:33:55;0.40;;;0.38;;
57593;SDS011;43423;46.510;6.686;2022-09-29T12:36:28;0.85;;;0.38;;
57593;SDS011;43423;46.510;6.686;2022-09-29T12:48:00;1.77;;;0.85;;
57593;SDS011;43423;46.510;6.686;2022-09-29T12:51:01;0.93;;;0.60;;
57593;SDS011;43423;46.510;6.686;2022-09-29T12:53:52;0.93;;;0.40;;
57593;SDS011;43423;46.510;6.686;2022-09-29T12:56:29;0.43;;;0.40;;
57593;SDS011;43423;46.510;6.686;2022-09-29T13:01:41;0.85;;;0.57;;
57593;SDS011;43423;46.510;6.686;2022-09-29T13:06:48;0.47;;;0.47;;
57593;SDS011;43423;46.510;6.686;2022-09-29T13:11:56;0.45;;;0.45;;
57593;SDS011;43423;46.510;6.686;2022-09-29T13:20:15;1.25;;;0.60;;
57593;SDS011;43423;46.510;6.686;2022-09-29T13:30:47;0.95;;;0.30;;
57593;SDS011;43423;46.510;6.686;2022-09-29T13:33:18;0.80;;;0.28;;
57593;SDS011;43423;46.510;6.686;2022-09-29T13:35:47;0.65;;;0.40;;
57593;SDS011;43423;46.510;6.686;2022-09-29T13:38:19;0.90;;;0.65;;
57593;SDS011;43423;46.510;6.686;2022-09-29T13:41:08;1.45;;;0.50;;
57593;SDS011;43423;46.510;6.686;2022-09-29T13:46:26;0.20;;;0.20;;
57593;SDS011;43423;46.510;6.686;2022-09-29T13:48:53;0.45;;;0.30;;
57593;SDS011;43423;46.510;6.686;2022-09-29T13:51:45;0.98;;;0.50;;
57593;SDS011;43423;46.510;6.686;2022-09-29T13:59:45;0.43;;;0.40;;
57593;SDS011;43423;46.510;6.686;2022-09-29T14:10:20;0.85;;;0.35;;
57593;SDS011;43423;46.510;6.686;2022-09-29T14:12:52;1.88;;;0.45;;
57593;SDS011;43423;46.510;6.686;2022-09-29T14:15:42;0.40;;;0.40;;
57593;SDS011;43423;46.510;6.686;2022-09-29T14:18:25;0.30;;;0.30;;
57593;SDS011;43423;46.510;6.686;2022-09-29T14:20:58;0.47;;;0.45;;
57593;SDS011;43423;46.510;6.686;2022-09-29T14:29:26;0.85;;;0.40;;
57593;SDS011;43423;46.510;6.686;2022-09-29T14:31:57;0.28;;;0.22;;
57593;SDS011;43423;46.510;6.686;2022-09-29T14:34:25;0.40;;;0.20;;
57593;SDS011;43423;46.510;6.686;2022-09-29T14:36:54;0.40;;;0.40;;
57593;SDS011;43423;46.510;6.686;2022-09-29T14:39:22;0.40;;;0.40;;
57593;SDS011;43423;46.510;6.686;2022-09-29T14:41:49;4.25;;;0.30;;
57593;SDS011;43423;46.510;6.686;2022-09-29T14:50:25;0.35;;;0.35;;
57593;SDS011;43423;46.510;6.686;2022-09-29T14:53:28;0.38;;;0.30;;
57593;SDS011;43423;46.510;6.686;2022-09-29T15:01:40;0.30;;;0.30;;
57593;SDS011;43423;46.510;6.686;2022-09-29T15:04:40;0.65;;;0.30;;
57593;SDS011;43423;46.510;6.686;2022-09-29T15:07:10;0.30;;;0.30;;
57593;SDS011;43423;46.510;6.686;2022-09-29T15:09:38;1.20;;;0.30;;
57593;SDS011;43423;46.510;6.686;2022-09-29T15:12:29;0.40;;;0.40;;
57593;SDS011;43423;46.510;6.686;2022-09-29T15:14:56;0.20;;;0.20;;
57593;SDS011;43423;46.510;6.686;2022-09-29T15:20:16;1.80;;;0.45;;
57593;SDS011;43423;46.510;6.686;2022-09-29T15:25:52;0.40;;;0.40;;
57593;SDS011;43423;46.510;6.686;2022-09-29T15:28:33;0.52;;;0.30;;
57593;SDS011;43423;46.510;6.686;2022-09-29T15:31:02;0.40;;;0.40;;
57593;SDS011;43423;46.510;6.686;2022-09-29T15:33:34;1.48;;;0.40;;
57593;SDS011;43423;46.510;6.686;2022-09-29T15:38:36;0.40;;;0.30;;
57593;SDS011;43423;46.510;6.686;2022-09-29T15:43:40;2.95;;;0.60;;
57593;SDS011;43423;46.510;6.686;2022-09-29T15:46:20;0.30;;;0.30;;
57593;SDS011;43423;46.510;6.686;2022-09-29T15:51:37;2.38;;;0.38;;
57593;SDS011;43423;46.510;6.686;2022-09-29T15:54:04;0.30;;;0.30;;
57593;SDS011;43423;46.510;6.686;2022-09-29T15:56:33;0.40;;;0.40;;
57593;SDS011;43423;46.510;6.686;2022-09-29T15:59:19;0.30;;;0.30;;
57593;SDS011;43423;46.510;6.686;2022-09-29T16:01:47;0.43;;;0.28;;
57593;SDS011;43423;46.510;6.686;2022-09-29T16:04:14;1.58;;;0.55;;
57593;SDS011;43423;46.510;6.686;2022-09-29T16:06:42;1.27;;;0.30;;
57593;SDS011;43423;46.510;6.686;2022-09-29T16:09:13;0.40;;;0.25;;
57593;SDS011;43423;46.510;6.686;2022-09-29T16:11:43;0.90;;;0.50;;
57593;SDS011;43423;46.510;6.686;2022-09-29T16:14:22;0.68;;;0.57;;
57593;SDS011;43423;46.510;6.686;2022-09-29T16:16:52;0.80;;;0.77;;
57593;SDS011;43423;46.510;6.686;2022-09-29T16:19:20;1.73;;;0.88;;
57593;SDS011;43423;46.510;6.686;2022-09-29T16:21:51;0.50;;;0.50;;
57593;SDS011;43423;46.510;6.686;2022-09-29T16:24:20;1.65;;;0.60;;
57593;SDS011;43423;46.510;6.686;2022-09-29T16:26:54;2.08;;;0.80;;
57593;SDS011;43423;46.510;6.686;2022-09-29T16:29:23;2.03;;;0.90;;
57593;SDS011;43423;46.510;6.686;2022-09-29T16:31:54;0.70;;;0.70;;
57593;SDS011;43423;46.510;6.686;2022-09-29T16:36:51;1.00;;;0.73;;
57593;SDS011;43423;46.510;6.686;2022-09-29T16:39:20;1.95;;;1.27;;
57593;SDS011;43423;46.510;6.686;2022-09-29T16:41:52;1.73;;;0.70;;
57593;SDS011;43423;46.510;6.686;2022-09-29T16:44:23;2.53;;;0.90;;
57593;SDS011;43423;46.510;6.686;2022-09-29T16:49:37;1.95;;;0.98;;
57593;SDS011;43423;46.510;6.686;2022-09-29T16:54:51;1.80;;;1.08;;
57593;SDS011;43423;46.510;6.686;2022-09-29T17:02:16;5.03;;;1.75;;
57593;SDS011;43423;46.510;6.686;2022-09-29T17:04:42;3.38;;;1.77;;
57593;SDS011;43423;46.510;6.686;2022-09-29T17:07:14;4.80;;;1.63;;
57593;SDS011;43423;46.510;6.686;2022-09-29T17:09:52;2.03;;;1.58;;
57593;SDS011;43423;46.510;6.686;2022-09-29T17:12:21;2.95;;;1.70;;
57593;SDS011;43423;46.510;6.686;2022-09-29T17:14:48;6.70;;;1.40;;
57593;SDS011;43423;46.510;6.686;2022-09-29T17:17:24;5.50;;;1.50;;
57593;SDS011;43423;46.510;6.686;2022-09-29T17:19:52;3.53;;;1.90;;
57593;SDS011;43423;46.510;6.686;2022-09-29T17:22:26;4.05;;;2.30;;
57593;SDS011;43423;46.510;6.686;2022-09-29T17:24:56;4.43;;;1.90;;
57593;SDS011;43423;46.510;6.686;2022-09-29T17:27:23;3.25;;;1.13;;
57593;SDS011;43423;46.510;6.686;2022-09-29T17:30:08;2.33;;;1.30;;
57593;SDS011;43423;46.510;6.686;2022-09-29T17:32:35;3.30;;;1.00;;
57593;SDS011;43423;46.510;6.686;2022-09-29T17:35:01;1.67;;;1.20;;
57593;SDS011;43423;46.510;6.686;2022-09-29T17:37:27;0.80;;;0.80;;
57593;SDS011;43423;46.510;6.686;2022-09-29T17:39:53;2.53;;;1.00;;
57593;SDS011;43423;46.510;6.686;2022-09-29T17:42:20;1.27;;;1.02;;
57593;SDS011;43423;46.510;6.686;2022-09-29T17:47:16;2.13;;;0.90;;
57593;SDS011;43423;46.510;6.686;2022-09-29T17:49:43;1.30;;;1.15;;
57593;SDS011;43423;46.510;6.686;2022-09-29T17:52:09;2.28;;;0.75;;
57593;SDS011;43423;46.510;6.686;2022-09-29T17:54:39;2.28;;;0.70;;
57593;SDS011;43423;46.510;6.686;2022-09-29T17:57:05;1.70;;;0.85;;
57593;SDS011;43423;46.510;6.686;2022-09-29T17:59:32;1.65;;;0.90;;
57593;SDS011;43423;46.510;6.686;2022-09-29T18:02:04;4.80;;;1.88;;
57593;SDS011;43423;46.510;6.686;2022-09-29T18:07:48;0.60;;;0.60;;
57593;SDS011;43423;46.510;6.686;2022-09-29T18:10:17;0.70;;;0.70;;
57593;SDS011;43423;46.510;6.686;2022-09-29T18:13:56;3.85;;;1.67;;
57593;SDS011;43423;46.510;6.686;2022-09-29T18:16:22;1.00;;;0.90;;
57593;SDS011;43423;46.510;6.686;2022-09-29T18:18:48;2.30;;;1.77;;
57593;SDS011;43423;46.510;6.686;2022-09-29T18:21:15;1.85;;;0.90;;
57593;SDS011;43423;46.510;6.686;2022-09-29T18:23:44;1.13;;;0.60;;
57593;SDS011;43423;46.510;6.686;2022-09-29T18:26:11;1.30;;;0.85;;
57593;SDS011;43423;46.510;6.686;2022-09-29T18:28:37;0.73;;;0.65;;
57593;SDS011;43423;46.510;6.686;2022-09-29T18:31:03;0.77;;;0.77;;
57593;SDS011;43423;46.510;6.686;2022-09-29T18:33:30;4.40;;;0.90;;
57593;SDS011;43423;46.510;6.686;2022-09-29T18:35:57;1.70;;;0.98;;